Terminal Aerodrome Forecast
Issued by NWS Cleveland, OH

Home | Current Version | Previous Version | Graphics & Text | Print | Product List | Glossary Off
Versions: 1 2 3 4 5 6 7 8 9 10 11 12 13 14

000
FTUS41 KCLE 112300
TAFCAK
TAF
KCAK 112329Z 1200/1224 26005KT P6SM SCT050 SCT250
     FM120200 VRB03KT P6SM BKN120
     FM120600 15003KT P6SM SCT250
     FM121500 22008KT P6SM SCT050 BKN250
     FM122200 22008KT P6SM SCT050 BKN120=

USA.gov is the U.S. government's official web portal to all federal, state and local government web resources and services.